createdAt,value
2022-11-05T00:00:00.090Z,10.96
2022-11-05T00:02:45.341Z,10.91
2022-11-05T00:05:31.306Z,11.18
2022-11-05T00:08:19.155Z,11.08
2022-11-05T00:10:45.683Z,11.08
2022-11-05T00:13:44.576Z,11.09
2022-11-05T00:16:39.913Z,10.94
2022-11-05T00:19:06.519Z,10.81
2022-11-05T00:21:52.859Z,11.00
2022-11-05T00:24:37.545Z,11.06
2022-11-05T00:27:04.107Z,10.99
2022-11-05T00:29:30.526Z,11.06
2022-11-05T00:31:56.918Z,11.09
2022-11-05T00:34:23.384Z,11.28
2022-11-05T00:36:49.837Z,11.28
2022-11-05T00:39:16.220Z,11.28
2022-11-05T00:41:42.612Z,11.20
2022-11-05T00:44:27.328Z,11.00
2022-11-05T00:47:13.669Z,11.09
2022-11-05T00:49:40.019Z,11.12
2022-11-05T00:52:24.730Z,11.15
2022-11-05T00:54:51.090Z,11.07
2022-11-05T00:57:17.449Z,11.02
2022-11-05T00:59:43.818Z,11.01
2022-11-05T01:02:10.370Z,11.01
2022-11-05T01:04:36.795Z,11.14
2022-11-05T01:07:03.213Z,11.01
2022-11-05T01:09:29.585Z,11.09
2022-11-05T01:11:56.000Z,11.06
2022-11-05T01:14:22.614Z,11.07
2022-11-05T01:16:49.092Z,11.14
2022-11-05T01:19:15.541Z,11.17
2022-11-05T01:21:41.905Z,11.17
2022-11-05T01:24:10.577Z,11.13
2022-11-05T01:26:36.984Z,11.06
2022-11-05T01:29:03.460Z,11.00
2022-11-05T01:31:29.888Z,10.83
2022-11-05T01:33:56.255Z,10.79
2022-11-05T01:36:22.658Z,10.71
2022-11-05T01:38:49.064Z,10.60
2022-11-05T01:41:15.455Z,10.43
2022-11-05T01:43:59.945Z,10.36
2022-11-05T01:46:33.272Z,10.47
2022-11-05T01:49:16.347Z,10.34
2022-11-05T01:51:45.064Z,10.48
2022-11-05T01:54:16.533Z,10.55
2022-11-05T01:56:50.685Z,10.60
2022-11-05T01:59:48.693Z,10.69
2022-11-05T02:02:15.679Z,10.74
2022-11-05T02:04:47.783Z,10.89
2022-11-05T02:07:14.729Z,10.89
2022-11-05T02:09:51.019Z,10.78
2022-11-05T02:12:18.748Z,10.68
2022-11-05T02:14:45.162Z,10.58
2022-11-05T02:17:24.605Z,10.77
2022-11-05T02:20:22.088Z,10.67
2022-11-05T02:23:13.718Z,10.59
2022-11-05T02:26:11.370Z,10.25
2022-11-05T02:29:13.340Z,10.20
2022-11-05T02:31:47.687Z,10.47
2022-11-05T02:34:28.904Z,10.34
2022-11-05T02:37:09.369Z,10.14
2022-11-05T02:40:05.400Z,9.98
2022-11-05T02:42:44.084Z,10.14
2022-11-05T02:45:31.445Z,9.95
2022-11-05T02:48:06.885Z,10.11
2022-11-05T02:50:39.326Z,10.06
2022-11-05T02:53:19.870Z,10.02
2022-11-05T02:56:01.049Z,9.67
2022-11-05T02:58:28.878Z,9.79
2022-11-05T03:00:57.373Z,9.48
2022-11-05T03:03:34.519Z,9.61
2022-11-05T03:06:00.950Z,9.67
2022-11-05T03:08:50.034Z,9.52
2022-11-05T03:11:22.819Z,9.35
2022-11-05T03:14:15.269Z,9.48
2022-11-05T03:16:45.686Z,9.55
2022-11-05T03:19:15.028Z,9.59
2022-11-05T03:21:47.475Z,9.60
2022-11-05T03:24:25.787Z,9.68
2022-11-05T03:26:57.383Z,9.35
2022-11-05T03:29:32.977Z,9.58
2022-11-05T03:32:02.308Z,9.42
2022-11-05T03:34:33.913Z,9.34
2022-11-05T03:37:02.546Z,9.25
2022-11-05T03:39:33.651Z,9.14
2022-11-05T03:42:02.939Z,9.39
2022-11-05T03:44:34.903Z,9.64
2022-11-05T03:47:06.679Z,9.50
2022-11-05T03:49:40.383Z,9.77
2022-11-05T03:52:06.694Z,9.60
2022-11-05T03:54:34.576Z,9.62
2022-11-05T03:57:09.205Z,9.76
2022-11-05T03:59:42.777Z,9.64
2022-11-05T04:02:11.986Z,9.92
2022-11-05T04:04:38.876Z,10.20
2022-11-05T04:07:24.654Z,10.52
2022-11-05T04:10:09.487Z,10.62
2022-11-05T04:12:54.378Z,10.61
2022-11-05T04:15:20.749Z,10.70
2022-11-05T04:17:47.110Z,10.73
2022-11-05T04:20:31.824Z,10.84
2022-11-05T04:23:24.338Z,10.80
2022-11-05T04:25:50.931Z,10.98
2022-11-05T04:28:17.329Z,10.98
2022-11-05T04:30:46.601Z,10.94
2022-11-05T04:33:15.773Z,10.93
2022-11-05T04:35:47.722Z,10.94
2022-11-05T04:38:17.422Z,10.88
2022-11-05T04:40:45.469Z,10.84
2022-11-05T04:43:15.324Z,10.80
2022-11-05T04:45:42.637Z,10.84
2022-11-05T04:48:09.220Z,10.78
2022-11-05T04:50:35.648Z,10.86
2022-11-05T04:53:02.487Z,11.03
2022-11-05T04:55:29.258Z,11.07
2022-11-05T04:57:55.914Z,10.97
2022-11-05T05:00:23.841Z,10.98
2022-11-05T05:02:50.359Z,11.05
2022-11-05T05:05:17.003Z,10.96
2022-11-05T05:07:43.413Z,10.97
2022-11-05T05:10:11.189Z,10.96
2022-11-05T05:12:37.659Z,10.97
2022-11-05T05:15:04.561Z,10.77
2022-11-05T05:17:30.979Z,10.85
2022-11-05T05:20:16.118Z,10.79
2022-11-05T05:22:42.477Z,10.88
2022-11-05T05:25:08.922Z,10.82
2022-11-05T05:27:35.289Z,10.75
2022-11-05T05:30:02.020Z,10.86
2022-11-05T05:32:28.476Z,10.91
2022-11-05T05:34:54.875Z,10.71
2022-11-05T05:37:21.312Z,10.54
2022-11-05T05:39:48.441Z,10.48
2022-11-05T05:42:15.567Z,10.43
2022-11-05T05:44:42.454Z,10.75
2022-11-05T05:47:08.818Z,10.69
2022-11-05T05:49:35.249Z,10.54
2022-11-05T05:52:01.806Z,10.65
2022-11-05T05:54:32.345Z,10.70
2022-11-05T05:57:00.674Z,10.58
2022-11-05T05:59:27.073Z,10.53
2022-11-05T06:01:53.622Z,10.43
2022-11-05T06:04:20.584Z,10.62
2022-11-05T06:06:47.107Z,10.61
2022-11-05T06:09:14.100Z,10.61
2022-11-05T06:11:41.224Z,10.48
2022-11-05T06:14:11.273Z,10.33
2022-11-05T06:16:38.990Z,10.10
2022-11-05T06:19:06.665Z,10.22
2022-11-05T06:21:33.084Z,10.11
2022-11-05T06:24:02.083Z,10.07
2022-11-05T06:26:29.232Z,10.23
2022-11-05T06:28:55.674Z,10.44
2022-11-05T06:31:22.267Z,10.50
2022-11-05T06:33:48.796Z,10.75
2022-11-05T06:36:17.502Z,10.69
2022-11-05T06:38:43.997Z,10.60
2022-11-05T06:41:10.889Z,10.70
2022-11-05T06:43:38.287Z,10.64
2022-11-05T06:46:05.233Z,10.49
2022-11-05T06:48:31.748Z,10.60
2022-11-05T06:50:58.478Z,10.68
2022-11-05T06:53:25.060Z,10.71
2022-11-05T06:55:51.420Z,10.67
2022-11-05T06:58:17.938Z,10.75
2022-11-05T07:00:44.486Z,10.77
2022-11-05T07:03:12.377Z,10.86
2022-11-05T07:05:50.998Z,10.74
2022-11-05T07:08:17.411Z,10.71
2022-11-05T07:10:43.971Z,10.77
2022-11-05T07:13:10.710Z,10.61
2022-11-05T07:15:37.620Z,10.81
2022-11-05T07:18:05.150Z,10.93
2022-11-05T07:20:34.228Z,10.98
2022-11-05T07:23:06.167Z,11.21
2022-11-05T07:25:34.027Z,11.19
2022-11-05T07:28:01.078Z,11.25
2022-11-05T07:30:27.669Z,11.23
2022-11-05T07:32:54.127Z,11.28
2022-11-05T07:35:20.913Z,11.32
2022-11-05T07:37:49.374Z,11.48
2022-11-05T07:40:18.425Z,11.66
2022-11-05T07:42:46.474Z,11.45
2022-11-05T07:45:12.886Z,11.54
2022-11-05T07:47:44.935Z,11.55
2022-11-05T07:50:11.477Z,11.49
2022-11-05T07:52:37.834Z,11.62
2022-11-05T07:55:04.612Z,11.69
2022-11-05T07:57:31.027Z,11.76
2022-11-05T07:59:57.522Z,11.75
2022-11-05T08:02:24.119Z,11.80
2022-11-05T08:04:50.618Z,11.79
2022-11-05T08:07:16.975Z,11.90
2022-11-05T08:09:43.339Z,11.87
2022-11-05T08:12:09.709Z,11.88
2022-11-05T08:14:36.073Z,11.91
2022-11-05T08:17:02.431Z,12.00
2022-11-05T08:19:28.798Z,12.02
2022-11-05T08:21:55.307Z,11.98
2022-11-05T08:24:21.721Z,12.15
2022-11-05T08:26:48.058Z,12.16
2022-11-05T08:29:14.459Z,12.18
2022-11-05T08:31:40.895Z,12.11
2022-11-05T08:34:07.761Z,12.12
2022-11-05T08:36:35.815Z,12.25
2022-11-05T08:39:02.226Z,12.31
2022-11-05T08:41:28.787Z,12.42
2022-11-05T08:43:56.218Z,12.39
2022-11-05T08:46:22.774Z,12.32
2022-11-05T08:48:49.964Z,12.36
2022-11-05T08:51:16.439Z,12.50
2022-11-05T08:53:42.786Z,12.54
2022-11-05T08:56:09.290Z,12.42
2022-11-05T08:58:36.025Z,12.46
2022-11-05T09:01:05.413Z,12.52
2022-11-05T09:03:32.056Z,12.56
2022-11-05T09:05:58.494Z,12.67
2022-11-05T09:08:24.880Z,12.62
2022-11-05T09:10:51.292Z,12.61
2022-11-05T09:13:19.815Z,12.64
2022-11-05T09:15:50.935Z,12.62
2022-11-05T09:18:18.995Z,12.75
2022-11-05T09:20:45.682Z,12.79
2022-11-05T09:23:14.764Z,12.74
2022-11-05T09:25:41.469Z,12.68
2022-11-05T09:28:21.364Z,12.89
2022-11-05T09:30:49.988Z,13.06
2022-11-05T09:33:19.013Z,13.02
2022-11-05T09:35:46.189Z,13.02
2022-11-05T09:38:13.438Z,12.97
2022-11-05T09:40:48.843Z,12.88
2022-11-05T09:43:20.340Z,12.99
2022-11-05T09:45:52.639Z,13.19
2022-11-05T09:48:24.427Z,13.18
2022-11-05T09:50:53.678Z,13.12
2022-11-05T09:53:23.261Z,13.16
2022-11-05T09:55:55.882Z,13.25
2022-11-05T09:58:39.145Z,13.36
2022-11-05T10:01:13.996Z,13.22
2022-11-05T10:03:48.085Z,13.32
2022-11-05T10:06:24.568Z,13.30
2022-11-05T10:09:00.759Z,13.35
2022-11-05T10:11:36.680Z,13.41
2022-11-05T10:14:28.918Z,13.41
2022-11-05T10:17:04.167Z,13.42
2022-11-05T10:19:41.134Z,13.55
2022-11-05T10:22:13.574Z,13.70
2022-11-05T10:24:44.661Z,13.55
2022-11-05T10:27:16.760Z,13.59
2022-11-05T10:29:43.731Z,13.63
2022-11-05T10:32:24.995Z,13.62
2022-11-05T10:34:53.987Z,13.62
2022-11-05T10:37:22.668Z,13.49
2022-11-05T10:39:49.324Z,13.57
2022-11-05T10:42:34.002Z,13.70
2022-11-05T10:45:05.376Z,13.66
2022-11-05T10:47:45.797Z,13.69
2022-11-05T10:50:17.912Z,13.70
2022-11-05T10:53:11.842Z,13.89
2022-11-05T10:55:43.605Z,13.88
2022-11-05T10:58:16.113Z,14.00
2022-11-05T11:00:44.938Z,13.93
2022-11-05T11:03:29.931Z,14.00
2022-11-05T11:06:01.755Z,14.08
2022-11-05T11:08:29.592Z,14.06
2022-11-05T11:10:58.909Z,13.88
2022-11-05T11:13:28.478Z,13.89
2022-11-05T11:16:12.918Z,13.98
2022-11-05T11:18:41.863Z,14.04
2022-11-05T11:21:19.923Z,13.93
2022-11-05T11:24:02.871Z,13.99
2022-11-05T11:26:32.445Z,14.07
2022-11-05T11:29:05.432Z,14.01
2022-11-05T11:31:33.338Z,13.92
2022-11-05T11:34:05.931Z,14.03
2022-11-05T11:36:43.098Z,14.16
2022-11-05T11:39:17.375Z,14.06
2022-11-05T11:41:45.089Z,13.98
2022-11-05T11:44:18.055Z,14.05
2022-11-05T11:46:49.602Z,14.03
2022-11-05T11:49:37.875Z,14.07
2022-11-05T11:52:17.081Z,14.01
2022-11-05T11:54:43.466Z,14.07
2022-11-05T11:57:30.063Z,14.25
2022-11-05T12:00:14.376Z,14.20
2022-11-05T12:03:09.381Z,14.22
2022-11-05T12:05:48.178Z,14.28
2022-11-05T12:08:30.699Z,14.21
2022-11-05T12:11:32.612Z,14.25
2022-11-05T12:14:09.670Z,14.21
2022-11-05T12:16:50.978Z,14.15
2022-11-05T12:19:40.664Z,14.39
2022-11-05T12:22:26.584Z,14.23
2022-11-05T12:25:21.519Z,14.23
2022-11-05T12:28:01.101Z,14.16
2022-11-05T12:30:35.777Z,14.37
2022-11-05T12:33:05.179Z,14.33
2022-11-05T12:36:21.154Z,14.25
2022-11-05T12:39:19.641Z,14.22
2022-11-05T12:41:58.136Z,14.16
2022-11-05T12:44:45.410Z,14.22
2022-11-05T12:47:41.091Z,14.27
2022-11-05T12:50:26.097Z,14.35
2022-11-05T12:53:14.518Z,14.38
2022-11-05T12:55:48.618Z,14.31
2022-11-05T12:58:56.691Z,14.30
2022-11-05T13:01:35.456Z,14.38
2022-11-05T13:04:13.354Z,14.40
2022-11-05T13:06:45.143Z,14.36
2022-11-05T13:09:19.950Z,14.45
2022-11-05T13:12:18.386Z,14.41
2022-11-05T13:14:55.037Z,14.39
2022-11-05T13:17:24.894Z,14.45
2022-11-05T13:19:57.407Z,14.63
2022-11-05T13:22:26.685Z,14.41
2022-11-05T13:24:57.818Z,14.47
2022-11-05T13:27:58.193Z,14.32
2022-11-05T13:30:34.760Z,14.42
2022-11-05T13:33:12.789Z,14.52
2022-11-05T13:35:47.767Z,14.53
2022-11-05T13:38:40.300Z,14.36
2022-11-05T13:41:32.679Z,14.54
2022-11-05T13:44:08.569Z,14.40
2022-11-05T13:47:22.500Z,14.45
2022-11-05T13:49:57.905Z,14.30
2022-11-05T13:52:36.309Z,14.30
2022-11-05T13:55:17.822Z,14.34
2022-11-05T13:58:09.771Z,14.20
2022-11-05T14:00:43.998Z,14.34
2022-11-05T14:03:20.368Z,14.26
2022-11-05T14:05:57.298Z,14.29
2022-11-05T14:08:27.575Z,14.29
2022-11-05T14:11:02.060Z,14.16
2022-11-05T14:13:44.692Z,14.16
2022-11-05T14:16:26.038Z,14.25
2022-11-05T14:19:13.887Z,14.07
2022-11-05T14:21:53.352Z,14.13
2022-11-05T14:24:22.685Z,14.10
2022-11-05T14:27:01.349Z,14.06
2022-11-05T14:29:42.493Z,14.15
2022-11-05T14:32:18.634Z,14.01
2022-11-05T14:35:01.526Z,14.08
2022-11-05T14:37:33.095Z,14.13
2022-11-05T14:40:19.476Z,14.04
2022-11-05T14:42:51.927Z,13.96
2022-11-05T14:45:30.493Z,13.99
2022-11-05T14:48:07.009Z,13.95
2022-11-05T14:50:41.757Z,13.88
2022-11-05T14:53:37.810Z,13.95
2022-11-05T14:56:08.699Z,13.90
2022-11-05T14:58:41.883Z,13.83
2022-11-05T15:01:09.878Z,13.74
2022-11-05T15:03:59.740Z,13.68
2022-11-05T15:06:32.703Z,13.69
2022-11-05T15:09:13.449Z,13.65
2022-11-05T15:11:48.488Z,13.66
2022-11-05T15:14:35.064Z,13.60
2022-11-05T15:17:15.481Z,13.60
2022-11-05T15:19:42.898Z,13.50
2022-11-05T15:22:28.028Z,13.47
2022-11-05T15:24:55.214Z,13.44
2022-11-05T15:27:35.054Z,13.42
2022-11-05T15:30:21.937Z,13.48
2022-11-05T15:32:48.448Z,13.39
2022-11-05T15:35:38.957Z,13.42
2022-11-05T15:38:26.260Z,13.28
2022-11-05T15:41:04.438Z,13.23
2022-11-05T15:43:30.936Z,13.24
2022-11-05T15:46:05.241Z,13.23
2022-11-05T15:48:32.486Z,13.25
2022-11-05T15:50:59.261Z,13.15
2022-11-05T15:54:01.828Z,13.09
2022-11-05T15:56:32.561Z,13.07
2022-11-05T15:59:16.177Z,13.02
2022-11-05T16:01:48.355Z,13.01
2022-11-05T16:04:21.610Z,13.05
2022-11-05T16:06:49.832Z,12.99
2022-11-05T16:09:31.980Z,12.99
2022-11-05T16:12:20.031Z,13.03
2022-11-05T16:14:58.745Z,12.96
2022-11-05T16:17:27.969Z,12.90
2022-11-05T16:19:54.969Z,12.87
2022-11-05T16:22:22.176Z,12.95
2022-11-05T16:24:49.222Z,12.93
2022-11-05T16:27:19.835Z,12.88
2022-11-05T16:29:50.325Z,12.81
2022-11-05T16:32:29.920Z,12.82
2022-11-05T16:35:00.743Z,12.75
2022-11-05T16:37:37.583Z,12.79
2022-11-05T16:40:12.884Z,12.77
2022-11-05T16:42:40.635Z,12.74
2022-11-05T16:45:10.369Z,12.76
2022-11-05T16:47:36.782Z,12.75
2022-11-05T16:50:14.607Z,12.72
2022-11-05T16:52:41.009Z,12.74
2022-11-05T16:55:08.921Z,12.71
2022-11-05T16:57:35.966Z,12.71
2022-11-05T17:00:02.736Z,12.70
2022-11-05T17:02:29.216Z,12.68
2022-11-05T17:04:55.751Z,12.66
2022-11-05T17:07:22.194Z,12.57
2022-11-05T17:09:48.600Z,12.61
2022-11-05T17:12:15.344Z,12.63
2022-11-05T17:14:41.874Z,12.66
2022-11-05T17:17:08.338Z,12.58
2022-11-05T17:19:34.721Z,12.58
2022-11-05T17:22:01.162Z,12.64
2022-11-05T17:24:27.549Z,12.59
2022-11-05T17:26:54.077Z,12.55
2022-11-05T17:29:20.434Z,12.53
2022-11-05T17:31:46.862Z,12.50
2022-11-05T17:34:13.251Z,12.43
2022-11-05T17:36:39.736Z,12.51
2022-11-05T17:39:06.120Z,12.49
2022-11-05T17:41:32.498Z,12.53
2022-11-05T17:43:58.978Z,12.53
2022-11-05T17:46:25.509Z,12.53
2022-11-05T17:48:51.867Z,12.56
2022-11-05T17:51:19.308Z,12.41
2022-11-05T17:53:47.324Z,12.53
2022-11-05T17:56:24.584Z,12.51
2022-11-05T17:58:55.608Z,12.45
2022-11-05T18:01:28.048Z,12.51
2022-11-05T18:03:54.564Z,12.38
2022-11-05T18:06:20.988Z,12.39
2022-11-05T18:08:47.565Z,12.41
2022-11-05T18:11:13.979Z,12.40
2022-11-05T18:13:40.414Z,12.38
2022-11-05T18:16:07.294Z,12.34
2022-11-05T18:18:33.731Z,12.36
2022-11-05T18:21:00.252Z,12.31
2022-11-05T18:23:26.858Z,12.30
2022-11-05T18:25:53.356Z,12.36
2022-11-05T18:28:19.736Z,12.31
2022-11-05T18:30:46.095Z,12.34
2022-11-05T18:33:12.763Z,12.36
2022-11-05T18:35:43.642Z,12.21
2022-11-05T18:38:10.168Z,12.22
2022-11-05T18:40:36.556Z,12.24
2022-11-05T18:43:02.984Z,12.27
2022-11-05T18:45:30.098Z,12.28
2022-11-05T18:47:56.580Z,12.24
2022-11-05T18:50:22.982Z,12.21
2022-11-05T18:52:49.352Z,12.19
2022-11-05T18:55:15.791Z,12.21
2022-11-05T18:57:42.230Z,12.19
2022-11-05T19:00:09.316Z,12.14
2022-11-05T19:02:35.990Z,12.12
2022-11-05T19:07:48.967Z,12.19
2022-11-05T19:10:15.584Z,12.26
2022-11-05T19:12:42.180Z,12.19
2022-11-05T19:15:09.147Z,12.14
2022-11-05T19:17:35.991Z,12.11
2022-11-05T19:20:03.225Z,12.09
2022-11-05T19:22:29.620Z,12.17
2022-11-05T19:24:56.027Z,12.15
2022-11-05T19:27:23.177Z,12.08
2022-11-05T19:29:49.545Z,12.13
2022-11-05T19:32:16.197Z,12.11
2022-11-05T19:34:42.546Z,12.07
2022-11-05T19:37:09.110Z,11.98
2022-11-05T19:39:36.058Z,12.11
2022-11-05T19:42:04.080Z,12.13
2022-11-05T19:44:31.109Z,12.19
2022-11-05T19:46:57.632Z,12.06
2022-11-05T19:49:24.496Z,12.02
2022-11-05T19:51:51.025Z,12.01
2022-11-05T19:54:17.632Z,12.05
2022-11-05T19:56:44.137Z,12.09
2022-11-05T19:59:11.476Z,12.07
2022-11-05T20:01:38.119Z,12.04
2022-11-05T20:04:05.694Z,12.04
2022-11-05T20:06:38.629Z,11.94
2022-11-05T20:09:25.522Z,12.05
2022-11-05T20:11:54.254Z,12.02
2022-11-05T20:14:20.998Z,12.08
2022-11-05T20:16:47.793Z,11.99
2022-11-05T20:19:17.413Z,11.90
2022-11-05T20:21:44.461Z,11.87
2022-11-05T20:24:13.195Z,11.89
2022-11-05T20:26:39.738Z,11.86
2022-11-05T20:29:06.253Z,11.87
2022-11-05T20:31:33.082Z,11.93
2022-11-05T20:33:59.491Z,11.93
2022-11-05T20:36:26.569Z,11.84
2022-11-05T20:38:56.394Z,11.85
2022-11-05T20:41:23.517Z,11.85
2022-11-05T20:43:50.807Z,11.77
2022-11-05T20:46:19.056Z,11.79
2022-11-05T20:48:45.853Z,11.85
2022-11-05T20:51:20.502Z,11.84
2022-11-05T20:53:47.689Z,11.80
2022-11-05T20:56:22.668Z,11.82
2022-11-05T20:58:49.956Z,11.81
2022-11-05T21:01:17.421Z,11.84
2022-11-05T21:03:45.298Z,11.88
2022-11-05T21:06:12.747Z,11.83
2022-11-05T21:08:39.648Z,11.78
2022-11-05T21:11:07.187Z,11.79
2022-11-05T21:13:34.031Z,11.85
2022-11-05T21:16:01.756Z,11.79
2022-11-05T21:18:30.918Z,11.86
2022-11-05T21:20:59.731Z,11.82
2022-11-05T21:23:28.118Z,11.90
2022-11-05T21:25:54.873Z,11.91
2022-11-05T21:28:21.569Z,11.84
2022-11-05T21:30:49.035Z,11.80
2022-11-05T21:33:17.706Z,11.84
2022-11-05T21:35:46.894Z,11.82
2022-11-05T21:38:16.021Z,11.85
2022-11-05T21:40:43.602Z,11.77
2022-11-05T21:43:10.191Z,11.81
2022-11-05T21:45:41.232Z,11.82
2022-11-05T21:48:08.579Z,11.82
2022-11-05T21:50:54.730Z,11.87
2022-11-05T21:53:39.518Z,11.78
2022-11-05T21:56:26.331Z,11.79
2022-11-05T21:59:11.290Z,11.76
2022-11-05T22:01:37.799Z,11.75
2022-11-05T22:04:04.412Z,11.71
2022-11-05T22:06:33.422Z,11.72
2022-11-05T22:09:00.188Z,11.67
2022-11-05T22:11:26.541Z,11.67
2022-11-05T22:13:53.629Z,11.64
2022-11-05T22:16:20.010Z,11.63
2022-11-05T22:18:46.405Z,11.58
2022-11-05T22:21:19.075Z,11.53
2022-11-05T22:23:45.561Z,11.55
2022-11-05T22:26:12.148Z,11.49
2022-11-05T22:28:38.551Z,11.53
2022-11-05T22:31:11.852Z,11.56
2022-11-05T22:33:38.249Z,11.50
2022-11-05T22:36:04.834Z,11.50
2022-11-05T22:38:31.233Z,11.63
2022-11-05T22:40:57.639Z,11.53
2022-11-05T22:43:24.153Z,11.45
2022-11-05T22:45:50.503Z,11.40
2022-11-05T22:48:16.900Z,11.52
2022-11-05T22:50:43.261Z,11.49
2022-11-05T22:53:09.673Z,11.55
2022-11-05T22:55:39.583Z,11.52
2022-11-05T22:58:06.015Z,11.52
2022-11-05T23:00:37.118Z,11.46
2022-11-05T23:03:03.870Z,11.52
2022-11-05T23:05:30.380Z,11.49
2022-11-05T23:08:15.773Z,11.40
2022-11-05T23:11:00.836Z,11.40
2022-11-05T23:13:27.263Z,11.39
2022-11-05T23:16:12.270Z,11.36
2022-11-05T23:18:57.070Z,11.32
2022-11-05T23:21:41.973Z,11.28
2022-11-05T23:24:08.490Z,11.22
2022-11-05T23:26:52.641Z,11.21
2022-11-05T23:29:21.781Z,11.24
2022-11-05T23:32:08.215Z,11.10
2022-11-05T23:34:34.635Z,10.97
2022-11-05T23:37:19.705Z,10.75
2022-11-05T23:39:46.085Z,10.87
2022-11-05T23:42:31.386Z,10.94
2022-11-05T23:45:16.610Z,10.86
2022-11-05T23:48:02.130Z,10.69
2022-11-05T23:50:33.113Z,10.45
2022-11-05T23:53:02.107Z,10.30
2022-11-05T23:55:30.192Z,9.99
2022-11-05T23:57:56.642Z,10.13
